createdAt,value
2023-01-13T00:01:29.297Z,13.23
2023-01-13T00:03:57.303Z,15.30
2023-01-13T00:06:26.148Z,14.00
2023-01-13T00:08:54.611Z,12.75
2023-01-13T00:11:23.134Z,13.70
2023-01-13T00:13:50.719Z,13.68
2023-01-13T00:16:19.872Z,12.55
2023-01-13T00:18:49.206Z,17.35
2023-01-13T00:21:24.852Z,14.10
2023-01-13T00:23:55.097Z,16.50
2023-01-13T00:26:27.895Z,16.38
2023-01-13T00:28:58.988Z,14.27
2023-01-13T00:31:29.482Z,17.60
2023-01-13T00:33:59.850Z,13.10
2023-01-13T00:36:28.356Z,17.42
2023-01-13T00:38:55.976Z,16.52
2023-01-13T00:41:26.037Z,17.73
2023-01-13T00:43:53.509Z,12.65
2023-01-13T00:46:23.002Z,15.60
2023-01-13T00:48:51.557Z,16.35
2023-01-13T00:51:21.741Z,17.27
2023-01-13T00:53:51.625Z,19.90
2023-01-13T00:56:38.960Z,18.17
2023-01-13T00:59:11.812Z,17.17
2023-01-13T01:01:41.016Z,18.75
2023-01-13T01:04:08.783Z,16.90
2023-01-13T01:06:36.689Z,16.60
2023-01-13T01:09:05.537Z,18.10
2023-01-13T01:11:34.200Z,22.00
2023-01-13T01:14:04.144Z,20.92
2023-01-13T01:16:33.638Z,17.25
2023-01-13T01:19:02.044Z,17.35
2023-01-13T01:21:29.773Z,19.05
2023-01-13T01:24:01.217Z,20.50
2023-01-13T01:26:30.758Z,20.70
2023-01-13T01:28:59.322Z,22.38
2023-01-13T01:31:31.573Z,16.45
2023-01-13T01:34:01.361Z,22.08
2023-01-13T01:36:34.915Z,21.42
2023-01-13T01:39:04.079Z,21.67
2023-01-13T01:41:35.165Z,22.35
2023-01-13T01:44:28.488Z,24.15
2023-01-13T01:46:57.494Z,21.27
2023-01-13T01:49:36.817Z,18.60
2023-01-13T01:52:11.780Z,21.80
2023-01-13T01:54:59.329Z,19.73
2023-01-13T01:57:39.158Z,20.42
2023-01-13T02:00:08.694Z,19.30
2023-01-13T02:02:46.464Z,17.25
2023-01-13T02:05:14.475Z,21.92
2023-01-13T02:07:45.873Z,18.85
2023-01-13T02:10:18.456Z,20.95
2023-01-13T02:12:48.865Z,23.05
2023-01-13T02:15:29.965Z,24.90
2023-01-13T02:18:33.911Z,24.85
2023-01-13T02:21:51.700Z,22.17
2023-01-13T02:24:55.037Z,21.02
2023-01-13T02:27:42.424Z,23.38
2023-01-13T02:30:53.543Z,23.35
2023-01-13T02:33:34.461Z,24.60
2023-01-13T02:36:11.565Z,31.23
2023-01-13T02:38:52.242Z,29.35
2023-01-13T02:41:52.738Z,25.45
2023-01-13T02:44:28.580Z,27.77
2023-01-13T02:47:22.852Z,28.38
2023-01-13T02:49:59.588Z,30.02
2023-01-13T02:52:42.760Z,28.08
2023-01-13T02:55:21.070Z,26.65
2023-01-13T02:57:51.607Z,26.08
2023-01-13T03:00:20.688Z,25.48
2023-01-13T03:02:49.460Z,26.88
2023-01-13T03:05:17.598Z,28.90
2023-01-13T03:08:31.774Z,29.83
2023-01-13T03:11:11.224Z,24.88
2023-01-13T03:14:11.001Z,27.65
2023-01-13T03:16:45.180Z,32.53
2023-01-13T03:19:44.061Z,29.88
2023-01-13T03:22:23.728Z,28.45
2023-01-13T03:24:59.072Z,24.60
2023-01-13T03:27:51.749Z,27.02
2023-01-13T03:30:36.346Z,23.80
2023-01-13T03:33:33.329Z,25.40
2023-01-13T03:36:09.869Z,22.88
2023-01-13T03:38:50.051Z,20.55
2023-01-13T03:41:29.981Z,26.58
2023-01-13T03:44:21.429Z,29.98
2023-01-13T03:47:36.773Z,23.75
2023-01-13T03:50:22.558Z,25.15
2023-01-13T03:53:06.667Z,21.58
2023-01-13T03:55:47.415Z,24.33
2023-01-13T03:58:23.375Z,22.27
2023-01-13T04:01:05.358Z,22.98
2023-01-13T04:03:49.971Z,17.00
2023-01-13T04:06:44.733Z,15.18
2023-01-13T04:09:22.845Z,17.30
2023-01-13T04:12:08.835Z,15.95
2023-01-13T04:14:37.763Z,13.20
2023-01-13T04:17:05.320Z,12.38
2023-01-13T04:19:33.106Z,12.20
2023-01-13T04:22:00.595Z,15.10
2023-01-13T04:24:28.135Z,9.00
2023-01-13T04:26:56.513Z,9.63
2023-01-13T04:29:23.964Z,7.88
2023-01-13T04:31:51.349Z,7.60
2023-01-13T04:34:18.939Z,7.35
2023-01-13T04:36:46.450Z,9.43
2023-01-13T04:39:13.897Z,8.35
2023-01-13T04:41:59.656Z,11.25
2023-01-13T04:44:27.522Z,13.00
2023-01-13T04:46:55.099Z,10.43
2023-01-13T04:49:22.783Z,10.43
2023-01-13T04:51:50.542Z,9.75
2023-01-13T04:54:17.984Z,13.18
2023-01-13T04:56:45.614Z,11.23
2023-01-13T04:59:14.394Z,10.15
2023-01-13T05:01:42.072Z,11.88
2023-01-13T05:04:09.572Z,13.65
2023-01-13T05:06:37.164Z,12.05
2023-01-13T05:09:04.567Z,11.38
2023-01-13T05:11:51.168Z,11.73
2023-01-13T05:14:37.607Z,16.85
2023-01-13T05:17:05.173Z,12.30
2023-01-13T05:19:35.817Z,12.70
2023-01-13T05:22:22.457Z,14.18
2023-01-13T05:25:08.730Z,14.57
2023-01-13T05:27:36.628Z,16.30
2023-01-13T05:30:05.798Z,15.75
2023-01-13T05:32:33.308Z,16.30
2023-01-13T05:35:00.831Z,14.13
2023-01-13T05:37:28.291Z,15.93
2023-01-13T05:40:14.649Z,14.73
2023-01-13T05:43:00.612Z,15.05
2023-01-13T05:45:30.728Z,21.33
2023-01-13T05:47:58.522Z,14.00
2023-01-13T05:50:25.970Z,16.65
2023-01-13T05:52:53.422Z,13.57
2023-01-13T05:55:20.890Z,22.40
2023-01-13T05:57:48.331Z,19.20
2023-01-13T06:00:16.846Z,18.08
2023-01-13T06:02:44.315Z,14.77
2023-01-13T06:05:11.746Z,13.18
2023-01-13T06:07:39.333Z,16.48
2023-01-13T06:10:07.931Z,15.68
2023-01-13T06:12:35.414Z,17.60
2023-01-13T06:15:03.162Z,17.20
2023-01-13T06:17:30.798Z,19.00
2023-01-13T06:19:58.234Z,15.27
2023-01-13T06:22:32.327Z,14.32
2023-01-13T06:24:59.990Z,16.92
2023-01-13T06:27:30.321Z,13.57
2023-01-13T06:29:57.752Z,13.35
2023-01-13T06:32:40.222Z,19.52
2023-01-13T06:35:14.093Z,20.08
2023-01-13T06:37:44.990Z,17.65
2023-01-13T06:40:14.799Z,20.03
2023-01-13T06:43:00.950Z,17.50
2023-01-13T06:45:31.426Z,15.77
2023-01-13T06:48:00.676Z,15.40
2023-01-13T06:50:28.888Z,17.67
2023-01-13T06:52:56.416Z,15.70
2023-01-13T06:55:24.207Z,15.40
2023-01-13T06:57:55.142Z,13.93
2023-01-13T07:00:25.524Z,16.43
2023-01-13T07:02:53.986Z,12.18
2023-01-13T07:05:22.539Z,20.67
2023-01-13T07:07:50.095Z,16.73
2023-01-13T07:10:22.449Z,16.48
2023-01-13T07:13:08.534Z,18.02
2023-01-13T07:15:36.274Z,16.55
2023-01-13T07:18:04.033Z,18.63
2023-01-13T07:20:31.717Z,19.33
2023-01-13T07:22:59.252Z,15.90
2023-01-13T07:25:26.759Z,15.98
2023-01-13T07:27:57.353Z,16.58
2023-01-13T07:30:30.436Z,17.30
2023-01-13T07:32:57.983Z,18.70
2023-01-13T07:35:25.440Z,16.30
2023-01-13T07:37:53.009Z,18.58
2023-01-13T07:40:20.505Z,19.00
2023-01-13T07:43:07.013Z,14.57
2023-01-13T07:45:34.510Z,16.95
2023-01-13T07:48:02.064Z,17.15
2023-01-13T07:50:29.653Z,14.73
2023-01-13T07:53:00.182Z,14.98
2023-01-13T07:55:27.581Z,15.00
2023-01-13T07:57:55.090Z,17.58
2023-01-13T08:00:23.401Z,15.75
2023-01-13T08:02:50.867Z,20.73
2023-01-13T08:05:18.512Z,19.30
2023-01-13T08:07:46.077Z,22.95
2023-01-13T08:10:13.520Z,20.63
2023-01-13T08:12:59.915Z,19.75
2023-01-13T08:15:27.487Z,18.00
2023-01-13T08:17:55.056Z,18.88
2023-01-13T08:20:22.611Z,20.02
2023-01-13T08:22:50.107Z,18.85
2023-01-13T08:25:17.697Z,22.05
2023-01-13T08:27:45.143Z,19.45
2023-01-13T08:30:12.816Z,15.90
2023-01-13T08:32:40.263Z,16.98
2023-01-13T08:35:08.352Z,21.60
2023-01-13T08:37:35.881Z,21.77
2023-01-13T08:40:04.503Z,17.88
2023-01-13T08:42:32.826Z,19.58
2023-01-13T08:45:00.368Z,17.50
2023-01-13T08:47:28.829Z,16.70
2023-01-13T08:49:56.273Z,25.17
2023-01-13T08:52:24.173Z,21.15
2023-01-13T08:54:51.606Z,17.50
2023-01-13T08:57:22.053Z,17.10
2023-01-13T08:59:49.675Z,22.88
2023-01-13T09:02:21.497Z,18.08
2023-01-13T09:04:49.811Z,22.70
2023-01-13T09:07:18.384Z,26.77
2023-01-13T09:09:46.094Z,15.50
2023-01-13T09:12:35.120Z,17.17
2023-01-13T09:15:06.183Z,19.60
2023-01-13T09:17:33.850Z,22.83
2023-01-13T09:20:01.264Z,21.15
2023-01-13T09:22:28.747Z,21.33
2023-01-13T09:24:56.333Z,21.20
2023-01-13T09:27:24.303Z,20.08
2023-01-13T09:29:51.789Z,19.48
2023-01-13T09:32:19.402Z,25.10
2023-01-13T09:35:02.352Z,18.63
2023-01-13T09:37:34.685Z,24.02
2023-01-13T09:40:18.478Z,21.77
2023-01-13T09:43:19.637Z,22.45
2023-01-13T09:45:59.684Z,21.37
2023-01-13T09:48:35.088Z,26.00
2023-01-13T09:51:30.781Z,20.98
2023-01-13T09:54:11.554Z,23.95
2023-01-13T09:56:39.169Z,18.20
2023-01-13T09:59:12.214Z,24.80
2023-01-13T10:01:59.441Z,24.92
2023-01-13T10:04:27.763Z,22.65
2023-01-13T10:07:05.933Z,22.42
2023-01-13T10:09:49.186Z,25.17
2023-01-13T10:12:43.587Z,20.17
2023-01-13T10:15:17.964Z,16.40
2023-01-13T10:18:18.246Z,23.55
2023-01-13T10:21:21.296Z,21.50
2023-01-13T10:24:07.239Z,21.95
2023-01-13T10:27:31.725Z,24.10
2023-01-13T10:29:59.153Z,25.17
2023-01-13T10:32:26.705Z,22.05
2023-01-13T10:34:57.372Z,20.35
2023-01-13T10:37:27.950Z,26.33
2023-01-13T10:40:00.976Z,26.98
2023-01-13T10:42:28.503Z,22.38
2023-01-13T10:44:59.931Z,22.13
2023-01-13T10:47:30.996Z,22.70
2023-01-13T10:50:03.679Z,23.60
2023-01-13T10:52:38.084Z,31.95
2023-01-13T10:55:26.654Z,21.90
2023-01-13T10:57:54.526Z,25.75
2023-01-13T11:00:33.034Z,24.83
2023-01-13T11:03:24.265Z,26.52
2023-01-13T11:05:56.502Z,27.57
2023-01-13T11:08:43.945Z,23.25
2023-01-13T11:11:38.088Z,22.65
2023-01-13T11:14:39.455Z,26.30
2023-01-13T11:17:25.451Z,23.97
2023-01-13T11:20:32.403Z,25.55
2023-01-13T11:23:14.623Z,26.42
2023-01-13T11:25:49.067Z,18.95
2023-01-13T11:28:38.945Z,18.35
2023-01-13T11:31:33.514Z,26.45
2023-01-13T11:34:21.853Z,25.27
2023-01-13T11:36:54.203Z,24.08
2023-01-13T11:39:30.172Z,23.48
2023-01-13T11:42:36.756Z,19.13
2023-01-13T11:45:34.749Z,22.80
2023-01-13T11:48:03.006Z,25.67
2023-01-13T11:50:51.479Z,26.25
2023-01-13T11:53:24.491Z,22.60
2023-01-13T11:56:33.288Z,23.98
2023-01-13T11:59:30.758Z,19.90
2023-01-13T12:02:19.997Z,20.73
2023-01-13T12:05:03.600Z,22.60
2023-01-13T12:08:23.372Z,20.77
2023-01-13T12:11:14.352Z,19.38
2023-01-13T12:14:13.646Z,24.75
2023-01-13T12:16:50.664Z,18.88
2023-01-13T12:19:29.450Z,19.77
2023-01-13T12:22:15.649Z,21.58
2023-01-13T12:25:04.157Z,21.42
2023-01-13T12:27:47.450Z,17.45
2023-01-13T12:30:39.064Z,18.85
2023-01-13T12:33:36.547Z,24.75
2023-01-13T12:36:25.461Z,22.50
2023-01-13T12:38:58.876Z,24.23
2023-01-13T12:42:04.046Z,24.88
2023-01-13T12:44:31.663Z,25.90
2023-01-13T12:47:00.318Z,26.30
2023-01-13T12:49:36.329Z,22.52
2023-01-13T12:52:17.351Z,19.45
2023-01-13T12:54:44.755Z,20.67
2023-01-13T12:57:24.141Z,19.08
2023-01-13T13:00:03.753Z,17.55
2023-01-13T13:02:43.971Z,21.63
2023-01-13T13:05:14.414Z,22.13
2023-01-13T13:07:48.629Z,23.85
2023-01-13T13:10:40.375Z,15.73
2023-01-13T13:13:39.320Z,20.23
2023-01-13T13:16:25.485Z,21.20
2023-01-13T13:19:20.130Z,18.17
2023-01-13T13:22:09.968Z,22.67
2023-01-13T13:24:43.089Z,13.73
2023-01-13T13:27:30.104Z,18.48
2023-01-13T13:30:33.679Z,22.10
2023-01-13T13:33:15.318Z,16.88
2023-01-13T13:36:13.777Z,19.50
2023-01-13T13:39:23.525Z,15.50
2023-01-13T13:42:23.181Z,17.23
2023-01-13T13:45:09.953Z,19.25
2023-01-13T13:47:39.457Z,21.90
2023-01-13T13:50:14.430Z,13.82
2023-01-13T13:52:54.120Z,19.90
2023-01-13T13:55:30.076Z,15.43
2023-01-13T13:58:01.514Z,15.50
2023-01-13T14:00:37.925Z,12.90
2023-01-13T14:03:34.097Z,12.90
2023-01-13T14:06:06.117Z,19.88
2023-01-13T14:08:38.065Z,16.30
2023-01-13T14:11:28.491Z,20.90
2023-01-13T14:14:13.821Z,16.83
2023-01-13T14:16:41.682Z,14.38
2023-01-13T14:19:36.041Z,17.33
2023-01-13T14:22:05.540Z,21.02
2023-01-13T14:24:34.074Z,16.58
2023-01-13T14:27:17.552Z,16.90
2023-01-13T14:29:45.670Z,17.08
2023-01-13T14:32:19.956Z,18.63
2023-01-13T14:34:48.270Z,19.33
2023-01-13T14:37:36.606Z,18.45
2023-01-13T14:40:05.145Z,17.98
2023-01-13T14:42:35.395Z,17.30
2023-01-13T14:45:03.570Z,16.75
2023-01-13T14:47:34.076Z,18.80
2023-01-13T14:50:16.697Z,16.20
2023-01-13T14:52:57.195Z,18.15
2023-01-13T14:55:38.438Z,18.77
2023-01-13T14:58:28.595Z,19.73
2023-01-13T15:01:36.186Z,16.33
2023-01-13T15:04:28.156Z,17.70
2023-01-13T15:06:57.547Z,17.58
2023-01-13T15:09:33.049Z,15.90
2023-01-13T15:12:17.264Z,21.08
2023-01-13T15:14:51.560Z,19.13
2023-01-13T15:17:19.070Z,18.60
2023-01-13T15:19:46.530Z,15.18
2023-01-13T15:22:13.974Z,18.13
2023-01-13T15:24:41.887Z,17.77
2023-01-13T15:27:22.316Z,22.38
2023-01-13T15:29:49.808Z,18.20
2023-01-13T15:32:21.968Z,17.88
2023-01-13T15:34:49.617Z,21.05
2023-01-13T15:37:17.115Z,18.98
2023-01-13T15:39:44.587Z,16.75
2023-01-13T15:42:31.816Z,17.20
2023-01-13T15:45:32.453Z,20.63
2023-01-13T15:48:00.102Z,17.77
2023-01-13T15:50:28.003Z,19.05
2023-01-13T15:52:55.471Z,19.23
2023-01-13T15:55:22.935Z,17.45
2023-01-13T15:57:50.989Z,21.42
2023-01-13T16:00:21.827Z,20.17
2023-01-13T16:02:50.426Z,17.63
2023-01-13T16:05:17.962Z,15.45
2023-01-13T16:07:45.776Z,16.35
2023-01-13T16:10:25.923Z,18.02
2023-01-13T16:12:55.788Z,19.48
2023-01-13T16:15:24.877Z,18.58
2023-01-13T16:18:03.416Z,17.48
2023-01-13T16:20:30.911Z,19.95
2023-01-13T16:22:58.311Z,17.83
2023-01-13T16:25:27.819Z,18.95
2023-01-13T16:27:55.328Z,22.92
2023-01-13T16:30:31.080Z,20.60
2023-01-13T16:32:58.877Z,15.95
2023-01-13T16:35:28.388Z,17.70
2023-01-13T16:37:58.481Z,20.40
2023-01-13T16:40:36.428Z,15.48
2023-01-13T16:43:06.686Z,20.55
2023-01-13T16:45:34.323Z,20.67
2023-01-13T16:48:01.842Z,20.23
2023-01-13T16:50:36.991Z,19.95
2023-01-13T16:53:05.316Z,20.27
2023-01-13T16:55:32.885Z,18.17
2023-01-13T16:58:00.331Z,17.85
2023-01-13T17:00:28.028Z,17.65
2023-01-13T17:02:55.615Z,24.88
2023-01-13T17:05:23.040Z,13.93
2023-01-13T17:07:50.634Z,18.65
2023-01-13T17:10:21.965Z,18.15
2023-01-13T17:12:49.744Z,16.67
2023-01-13T17:15:19.312Z,18.65
2023-01-13T17:17:48.704Z,16.05
2023-01-13T17:20:16.367Z,18.83
2023-01-13T17:22:47.545Z,19.63
2023-01-13T17:25:17.404Z,18.67
2023-01-13T17:27:44.973Z,20.65
2023-01-13T17:30:16.169Z,17.88
2023-01-13T17:32:43.642Z,14.07
2023-01-13T17:35:12.857Z,17.98
2023-01-13T17:37:40.510Z,17.02
2023-01-13T17:40:09.208Z,18.45
2023-01-13T17:42:37.434Z,15.07
2023-01-13T17:45:06.129Z,16.63
2023-01-13T17:47:33.524Z,14.77
2023-01-13T17:50:01.005Z,12.55
2023-01-13T17:52:28.514Z,14.95
2023-01-13T17:54:56.047Z,15.20
2023-01-13T17:57:23.903Z,15.00
2023-01-13T17:59:51.308Z,16.80
2023-01-13T18:02:18.885Z,20.05
2023-01-13T18:04:46.435Z,18.40
2023-01-13T18:07:13.863Z,17.10
2023-01-13T18:09:41.329Z,16.65
2023-01-13T18:12:08.813Z,12.90
2023-01-13T18:14:36.246Z,19.80
2023-01-13T18:17:03.795Z,15.45
2023-01-13T18:19:50.240Z,18.98
2023-01-13T18:22:36.208Z,18.70
2023-01-13T18:25:22.977Z,19.35
2023-01-13T18:27:50.524Z,18.00
2023-01-13T18:30:18.111Z,18.92
2023-01-13T18:32:45.522Z,18.58
2023-01-13T18:35:15.403Z,19.05
2023-01-13T18:37:43.010Z,20.10
2023-01-13T18:40:13.399Z,14.07
2023-01-13T18:42:56.491Z,16.40
2023-01-13T18:45:28.129Z,12.43
2023-01-13T18:50:28.353Z,9.25
2023-01-13T18:52:56.285Z,12.83
2023-01-13T18:55:25.225Z,10.90
2023-01-13T18:57:53.603Z,13.27
2023-01-13T19:00:22.538Z,9.38
2023-01-13T19:05:35.858Z,15.48
2023-01-13T19:08:04.777Z,15.60
2023-01-13T19:10:32.649Z,14.15
2023-01-13T19:13:01.584Z,16.33
2023-01-13T19:15:30.065Z,16.90
2023-01-13T19:17:57.619Z,18.50
2023-01-13T19:20:25.084Z,14.68
2023-01-13T19:22:54.375Z,17.80
2023-01-13T19:25:22.746Z,16.17
2023-01-13T19:27:50.208Z,13.45
2023-01-13T19:30:18.004Z,12.68
2023-01-13T19:32:45.457Z,11.90
2023-01-13T19:35:17.292Z,11.60
2023-01-13T19:37:46.973Z,12.77
2023-01-13T19:40:14.710Z,11.95
2023-01-13T19:43:21.457Z,19.60
2023-01-13T19:45:51.148Z,14.18
2023-01-13T19:48:18.672Z,13.93
2023-01-13T19:50:46.159Z,14.88
2023-01-13T19:53:17.594Z,17.08
2023-01-13T19:55:48.498Z,16.17
2023-01-13T19:58:23.089Z,17.90
2023-01-13T20:00:54.124Z,13.43
2023-01-13T20:03:26.827Z,18.17
2023-01-13T20:05:55.140Z,15.30
2023-01-13T20:08:25.793Z,14.75
2023-01-13T20:11:13.286Z,17.85
2023-01-13T20:13:40.793Z,14.88
2023-01-13T20:16:08.885Z,13.40
2023-01-13T20:18:37.320Z,13.52
2023-01-13T20:21:07.844Z,19.52
2023-01-13T20:23:35.729Z,17.42
2023-01-13T20:26:10.177Z,18.25
2023-01-13T20:28:39.456Z,19.65
2023-01-13T20:31:13.181Z,11.88
2023-01-13T20:33:41.630Z,14.50
2023-01-13T20:36:27.356Z,16.95
2023-01-13T20:38:59.500Z,12.43
2023-01-13T20:41:46.630Z,16.10
2023-01-13T20:44:14.848Z,20.05
2023-01-13T20:46:46.812Z,17.98
2023-01-13T20:49:16.530Z,16.95
2023-01-13T20:51:44.384Z,15.68
2023-01-13T20:54:11.812Z,22.20
2023-01-13T20:56:40.500Z,14.63
2023-01-13T20:59:08.691Z,16.42
2023-01-13T21:01:37.832Z,19.85
2023-01-13T21:04:07.133Z,24.75
2023-01-13T21:06:35.350Z,16.55
2023-01-13T21:09:03.100Z,19.27
2023-01-13T21:11:49.106Z,15.00
2023-01-13T21:14:44.483Z,19.52
2023-01-13T21:17:33.712Z,18.17
2023-01-13T21:20:04.789Z,20.38
2023-01-13T21:22:32.305Z,20.42
2023-01-13T21:24:59.982Z,18.20
2023-01-13T21:27:27.472Z,17.83
2023-01-13T21:29:55.018Z,19.10
2023-01-13T21:32:22.749Z,18.85
2023-01-13T21:34:50.268Z,19.83
2023-01-13T21:37:18.628Z,18.65
2023-01-13T21:39:46.324Z,16.98
2023-01-13T21:42:33.919Z,17.38
2023-01-13T21:45:20.636Z,18.70
2023-01-13T21:47:48.592Z,16.70
2023-01-13T21:50:25.512Z,18.52
2023-01-13T21:52:53.038Z,22.33
2023-01-13T21:55:25.407Z,18.50
2023-01-13T21:57:55.974Z,15.30
2023-01-13T22:00:31.000Z,18.40
2023-01-13T22:02:59.655Z,19.45
2023-01-13T22:05:27.101Z,16.55
2023-01-13T22:07:54.548Z,24.33
2023-01-13T22:10:25.794Z,16.13
2023-01-13T22:13:22.381Z,15.35
2023-01-13T22:15:49.981Z,21.05
2023-01-13T22:18:20.182Z,18.52
2023-01-13T22:20:49.118Z,21.92
2023-01-13T22:23:17.010Z,17.85
2023-01-13T22:25:44.444Z,20.90
2023-01-13T22:28:13.885Z,20.48
2023-01-13T22:30:41.453Z,16.25
2023-01-13T22:33:09.496Z,17.83
2023-01-13T22:35:38.420Z,19.48
2023-01-13T22:38:05.986Z,15.43
2023-01-13T22:40:33.408Z,24.13
2023-01-13T22:43:00.863Z,18.45
2023-01-13T22:45:28.333Z,19.83
2023-01-13T22:47:55.763Z,22.77
2023-01-13T22:50:23.214Z,19.85
2023-01-13T22:52:50.752Z,17.58
2023-01-13T22:55:18.159Z,21.38
2023-01-13T22:57:48.389Z,19.90
2023-01-13T23:00:19.302Z,18.27
2023-01-13T23:02:47.072Z,17.13
2023-01-13T23:05:14.642Z,18.83
2023-01-13T23:07:42.053Z,18.42
2023-01-13T23:10:10.258Z,19.17
2023-01-13T23:12:37.760Z,19.55
2023-01-13T23:15:05.894Z,18.30
2023-01-13T23:17:33.400Z,20.95
2023-01-13T23:20:00.805Z,22.45
2023-01-13T23:22:28.300Z,15.95
2023-01-13T23:24:55.797Z,18.60
2023-01-13T23:27:23.262Z,22.30
2023-01-13T23:29:50.780Z,16.83
2023-01-13T23:32:18.221Z,23.13
2023-01-13T23:34:45.716Z,19.65
2023-01-13T23:37:13.198Z,20.42
2023-01-13T23:39:40.698Z,21.58
2023-01-13T23:42:08.266Z,26.83
2023-01-13T23:44:35.771Z,19.15
2023-01-13T23:47:03.325Z,24.90
2023-01-13T23:49:31.227Z,19.73
2023-01-13T23:51:58.701Z,24.83
2023-01-13T23:54:26.124Z,24.67
2023-01-13T23:56:57.382Z,23.40
2023-01-13T23:59:24.977Z,23.92
